Time;durP1;ratioP1;P1;durP2;ratioP2;P2;SDS_P1;SDS_P2;PMS_P1;PMS_P2;Temp;Humidity;BMP_temperature;BMP_pressure;BME280_temperature;BME280_humidity;BME280_pressure;Samples;Min_cycle;Max_cycle;Signal;HPM_P1;HPM_P2
2023/06/09 00:02:57;;;;;;;14.5;11.3;;;;;;;16;88.1;98530;;;;
2023/06/09 00:13:57;;;;;;;14.5;11.3;;;;;;;16;87.6;98520;;;;
2023/06/09 00:23:57;;;;;;;17.3;12.2;;;;;;;15.9;88.5;98510;;;;
2023/06/09 00:33:57;;;;;;;17.3;12.2;;;;;;;16.1;87.7;98510;;;;
2023/06/09 00:43:58;;;;;;;17.3;12.2;;;;;;;16;87.6;98520;;;;
2023/06/09 00:54:58;;;;;;;14.2;11.2;;;;;;;16;88.6;98510;;;;
2023/06/09 01:04:57;;;;;;;14.2;11.2;;;;;;;16.1;88.4;98510;;;;
2023/06/09 01:14:57;;;;;;;16.9;13.9;;;;;;;16.1;87.8;98500;;;;
2023/06/09 01:25:57;;;;;;;16.9;13.9;;;;;;;16.1;88.3;98490;;;;
2023/06/09 01:35:57;;;;;;;16.9;13.9;;;;;;;16;88.5;98490;;;;
2023/06/09 01:45:57;;;;;;;20.8;16.2;;;;;;;16;88;98480;;;;
2023/06/09 01:56:57;;;;;;;20.8;16.2;;;;;;;15.9;88.4;98480;;;;
2023/06/09 02:07:58;;;;;;;20.8;16.2;;;;;;;15.9;88.9;98470;;;;
2023/06/09 02:17:57;;;;;;;21.5;18.2;;;;;;;15.9;88.6;98460;;;;
2023/06/09 02:28:57;;;;;;;21.5;18.2;;;;;;;16;88;98470;;;;
2023/06/09 02:38:57;;;;;;;21.5;18.2;;;;;;;15.9;88.5;98460;;;;
2023/06/09 02:48:57;;;;;;;23.3;18.7;;;;;;;15.9;89.8;98460;;;;
2023/06/09 02:58:57;;;;;;;23.3;18.7;;;;;;;15.9;90.6;98470;;;;
2023/06/09 03:08:57;;;;;;;23.3;18.7;;;;;;;16;90.5;98470;;;;
2023/06/09 03:18:57;;;;;;;28.7;24.5;;;;;;;16;90.7;98480;;;;
2023/06/09 03:28:57;;;;;;;28.7;24.5;;;;;;;16.2;90.2;98500;;;;
2023/06/09 03:38:57;;;;;;;28.7;24.5;;;;;;;16.1;90.3;98510;;;;
2023/06/09 03:48:57;;;;;;;29.9;23.7;;;;;;;16.2;89.9;98510;;;;
2023/06/09 03:59:57;;;;;;;29.9;23.7;;;;;;;16.2;89.8;98510;;;;
2023/06/09 04:10:57;;;;;;;29.9;23.7;;;;;;;16.6;89.3;98510;;;;
2023/06/09 04:21:58;;;;;;;30.5;24.5;;;;;;;16.7;88.4;98510;;;;
2023/06/09 04:31:58;;;;;;;30.5;24.5;;;;;;;16.8;88.2;98510;;;;
2023/06/09 04:41:57;;;;;;;30.5;24.5;;;;;;;16.9;87.6;98500;;;;
2023/06/09 04:51:57;;;;;;;20.4;17.2;;;;;;;16.8;88.2;98500;;;;
2023/06/09 05:01:57;;;;;;;20.4;17.2;;;;;;;17;88.3;98510;;;;
2023/06/09 05:11:57;;;;;;;20.4;17.2;;;;;;;16.8;88.6;98520;;;;
2023/06/09 05:22:57;;;;;;;23.7;18.1;;;;;;;17.1;88;98510;;;;
2023/06/09 05:32:57;;;;;;;23.7;18.1;;;;;;;17.3;87.2;98510;;;;
2023/06/09 05:42:57;;;;;;;23.7;18.1;;;;;;;17.8;86;98510;;;;
2023/06/09 05:52:57;;;;;;;26.6;21.4;;;;;;;17.8;85.3;98510;;;;
2023/06/09 06:02:59;;;;;;;26.6;21.4;;;;;;;17.6;86;98510;;;;
2023/06/09 06:13:01;;;;;;;26.6;21.4;;;;;;;17.6;86.3;98530;;;;
2023/06/09 06:22:58;;;;;;;21.7;19.3;;;;;;;18.2;83.6;98530;;;;
2023/06/09 06:32:57;;;;;;;21.7;19.3;;;;;;;18.4;82.8;98540;;;;
2023/06/09 06:42:57;;;;;;;21.7;19.3;;;;;;;18.6;82.2;98540;;;;
2023/06/09 06:52:57;;;;;;;25.6;19.5;;;;;;;18.6;82.3;98540;;;;
2023/06/09 07:02:57;;;;;;;25.6;19.5;;;;;;;19;81.3;98540;;;;
2023/06/09 07:13:57;;;;;;;25.6;19.5;;;;;;;19.7;78.5;98540;;;;
2023/06/09 07:23:57;;;;;;;23;16.7;;;;;;;19.9;77.5;98540;;;;
2023/06/09 07:33:57;;;;;;;23;16.7;;;;;;;20.4;75.2;98540;;;;
2023/06/09 07:44:57;;;;;;;17;14.9;;;;;;;20.8;73.6;98530;;;;
2023/06/09 07:55:57;;;;;;;17;14.9;;;;;;;21.1;72.2;98530;;;;
2023/06/09 08:05:57;;;;;;;17;14.9;;;;;;;21.3;71.8;98530;;;;
2023/06/09 08:15:57;;;;;;;18.3;15.6;;;;;;;21.4;71.9;98520;;;;
2023/06/09 08:25:57;;;;;;;18.3;15.6;;;;;;;21.5;70;98510;;;;
2023/06/09 08:35:58;;;;;;;18.3;15.6;;;;;;;21.2;69;98500;;;;
2023/06/09 08:45:57;;;;;;;18.2;13.3;;;;;;;21.2;69.3;98500;;;;
2023/06/09 08:56:58;;;;;;;18.2;13.3;;;;;;;21.4;68.5;98490;;;;
2023/06/09 09:07:58;;;;;;;18.2;13.3;;;;;;;21.9;67.3;98470;;;;
2023/06/09 09:18:57;;;;;;;17;12.4;;;;;;;22.9;65.7;98450;;;;
2023/06/09 09:28:58;;;;;;;17;12.4;;;;;;;22.9;64.6;98450;;;;
2023/06/09 09:39:57;;;;;;;17;12.4;;;;;;;23.4;62.8;98440;;;;
2023/06/09 09:49:58;;;;;;;15.7;10.2;;;;;;;23.8;61.6;98430;;;;
2023/06/09 09:59:59;;;;;;;15.7;10.2;;;;;;;24.1;59.5;98420;;;;
2023/06/09 10:09:58;;;;;;;15.7;10.2;;;;;;;24;58.5;98410;;;;
2023/06/09 10:20:58;;;;;;;12.8;9.6;;;;;;;24.1;59.5;98410;;;;
2023/06/09 10:30:57;;;;;;;12.8;9.6;;;;;;;24.5;58.6;98380;;;;
2023/06/09 10:41:58;;;;;;;12.8;9.6;;;;;;;24.8;56.7;98380;;;;
2023/06/09 10:51:57;;;;;;;11.5;7.7;;;;;;;25.3;55.4;98390;;;;
2023/06/09 11:01:58;;;;;;;11.5;7.7;;;;;;;24.6;57;98390;;;;
2023/06/09 11:11:58;;;;;;;11.5;7.7;;;;;;;24.4;58.5;98390;;;;
2023/06/09 11:21:58;;;;;;;10;7.4;;;;;;;24;58.7;98400;;;;
2023/06/09 11:32:58;;;;;;;10;7.4;;;;;;;23.8;59.8;98400;;;;
2023/06/09 11:43:58;;;;;;;10;7.4;;;;;;;24.5;58.9;98400;;;;
2023/06/09 11:53:58;;;;;;;10.2;8.5;;;;;;;24.5;58.2;98400;;;;
2023/06/09 12:04:58;;;;;;;10.2;8.5;;;;;;;23.8;61.5;98390;;;;
2023/06/09 12:14:58;;;;;;;10.2;8.5;;;;;;;23.9;59.9;98380;;;;
2023/06/09 12:25:59;;;;;;;10.8;9.2;;;;;;;24.3;61.5;98370;;;;
2023/06/09 12:35:58;;;;;;;10.8;9.2;;;;;;;24.5;60.7;98370;;;;
2023/06/09 12:45:58;;;;;;;13.9;9.9;;;;;;;24.7;59.3;98380;;;;
2023/06/09 12:56:58;;;;;;;13.9;9.9;;;;;;;24.5;60.5;98370;;;;
2023/06/09 13:06:58;;;;;;;13.9;9.9;;;;;;;23.9;61.2;98370;;;;
2023/06/09 13:16:58;;;;;;;10.8;8.9;;;;;;;23.9;59.4;98350;;;;
2023/06/09 13:27:58;;;;;;;10.8;8.9;;;;;;;24;60.7;98320;;;;
2023/06/09 13:37:58;;;;;;;10.8;8.9;;;;;;;24;59.5;98310;;;;
2023/06/09 13:47:58;;;;;;;7.3;4.7;;;;;;;23.5;56.8;98310;;;;
2023/06/09 13:57:58;;;;;;;7.3;4.7;;;;;;;23.2;58.8;98310;;;;
2023/06/09 14:07:58;;;;;;;7.3;4.7;;;;;;;22.9;58.5;98300;;;;
2023/06/09 14:18:58;;;;;;;5.7;3.1;;;;;;;23.6;56.5;98330;;;;
2023/06/09 14:29:58;;;;;;;5.7;3.1;;;;;;;23.9;55.9;98330;;;;
2023/06/09 14:40:58;;;;;;;5.7;3.1;;;;;;;24.2;55;98340;;;;
2023/06/09 14:50:58;;;;;;;3;1.6;;;;;;;24.5;56.5;98360;;;;
2023/06/09 15:01:58;;;;;;;3;1.6;;;;;;;26.7;51.2;98350;;;;
2023/06/09 15:11:58;;;;;;;3;1.6;;;;;;;30.9;41.4;98340;;;;
2023/06/09 15:21:58;;;;;;;3.9;1.6;;;;;;;30;40.8;98340;;;;
2023/06/09 15:31:58;;;;;;;3.9;1.6;;;;;;;28.7;42.3;98340;;;;
2023/06/09 15:41:58;;;;;;;3.9;1.6;;;;;;;30.6;39.5;98330;;;;
2023/06/09 15:51:58;;;;;;;4.4;1.8;;;;;;;32.4;37.1;98330;;;;
2023/06/09 16:01:58;;;;;;;4.4;1.8;;;;;;;29.7;41;98350;;;;
2023/06/09 16:12:58;;;;;;;4.4;1.8;;;;;;;26.6;50.8;98360;;;;
2023/06/09 16:23:58;;;;;;;9.6;4.6;;;;;;;24.2;57.8;98370;;;;
2023/06/09 16:33:58;;;;;;;9.6;4.6;;;;;;;23.1;62.4;98390;;;;
2023/06/09 16:44:58;;;;;;;9.6;4.6;;;;;;;22;66.4;98400;;;;
2023/06/09 16:54:58;;;;;;;10.2;5.6;;;;;;;21.1;69.6;98410;;;;
2023/06/09 17:05:58;;;;;;;10.2;5.6;;;;;;;20.1;71.4;98400;;;;
2023/06/09 17:15:58;;;;;;;8.1;4.9;;;;;;;19.8;72.3;98390;;;;
2023/06/09 17:26:58;;;;;;;8.1;4.9;;;;;;;19.5;75.2;98380;;;;
2023/06/09 17:36:58;;;;;;;8.1;4.9;;;;;;;19.3;78.2;98370;;;;
2023/06/09 17:46:59;;;;;;;11.1;8;;;;;;;19.1;78.8;98360;;;;
2023/06/09 17:57:58;;;;;;;11.1;8;;;;;;;18.9;81.4;98370;;;;
2023/06/09 18:07:58;;;;;;;11.1;8;;;;;;;18.9;80.5;98390;;;;
2023/06/09 18:18:58;;;;;;;13.2;8;;;;;;;18.7;81.7;98400;;;;
2023/06/09 18:29:58;;;;;;;13.2;8;;;;;;;18.6;81.4;98410;;;;
2023/06/09 18:40:58;;;;;;;13.2;8;;;;;;;18.4;81.6;98420;;;;
2023/06/09 18:50:58;;;;;;;12.1;9.8;;;;;;;18.2;82;98420;;;;
2023/06/09 19:00:58;;;;;;;12.1;9.8;;;;;;;18.1;82.9;98430;;;;
2023/06/09 19:10:58;;;;;;;12.1;9.8;;;;;;;17.9;84.5;98440;;;;
2023/06/09 19:20:58;;;;;;;15.2;12.3;;;;;;;17.7;85.8;98450;;;;
2023/06/09 19:31:58;;;;;;;15.2;12.3;;;;;;;17.7;85.6;98450;;;;
2023/06/09 19:41:58;;;;;;;15.2;12.3;;;;;;;17.6;86.1;98450;;;;
2023/06/09 19:51:58;;;;;;;15.5;12.3;;;;;;;17.5;86.7;98460;;;;
2023/06/09 20:01:58;;;;;;;15.5;12.3;;;;;;;17.6;85.8;98450;;;;
2023/06/09 20:11:58;;;;;;;15.5;12.3;;;;;;;17.6;85.8;98450;;;;
2023/06/09 20:21:58;;;;;;;15.7;13.3;;;;;;;17.5;86;98450;;;;
2023/06/09 20:32:58;;;;;;;15.7;13.3;;;;;;;17.5;85.1;98450;;;;
2023/06/09 20:44:00;;;;;;;15.7;13.3;;;;;;;17.3;84.8;98450;;;;
2023/06/09 20:54:58;;;;;;;23.2;19.5;;;;;;;17.1;84.2;98460;;;;
2023/06/09 21:05:58;;;;;;;23.2;19.5;;;;;;;16.9;83.8;98460;;;;
2023/06/09 21:16:58;;;;;;;15.5;12.4;;;;;;;16.9;83.7;98470;;;;
2023/06/09 21:27:59;;;;;;;15.5;12.4;;;;;;;16.8;84;98480;;;;
2023/06/09 21:37:58;;;;;;;15.5;12.4;;;;;;;16.8;84.8;98470;;;;
2023/06/09 21:48:58;;;;;;;18.7;13.5;;;;;;;16.8;85.1;98470;;;;
2023/06/09 21:58:58;;;;;;;18.7;13.5;;;;;;;16.6;85.5;98460;;;;
2023/06/09 22:08:58;;;;;;;18.7;13.5;;;;;;;16.6;85.7;98460;;;;
2023/06/09 22:19:58;;;;;;;17.7;14.5;;;;;;;16.5;85.3;98460;;;;
2023/06/09 22:29:58;;;;;;;17.7;14.5;;;;;;;16.4;85.6;98450;;;;
2023/06/09 22:39:58;;;;;;;17.7;14.5;;;;;;;16.2;85.4;98450;;;;
2023/06/09 22:50:00;;;;;;;21.5;17.3;;;;;;;16;85.9;98450;;;;
2023/06/09 23:00:58;;;;;;;21.5;17.3;;;;;;;16;86.6;98440;;;;
2023/06/09 23:10:58;;;;;;;21.5;17.3;;;;;;;16;86.9;98440;;;;
2023/06/09 23:20:58;;;;;;;21.3;16.2;;;;;;;16.2;87;98440;;;;
2023/06/09 23:30:58;;;;;;;21.3;16.2;;;;;;;16.2;87.1;98440;;;;
2023/06/09 23:40:58;;;;;;;21.3;16.2;;;;;;;16.2;88.6;98440;;;;
2023/06/09 23:50:58;;;;;;;21.8;18.6;;;;;;;16.4;88.7;98430;;;;
